createdAt,value
2019-04-20T00:01:12.528Z,2.27
2019-04-20T00:06:13.135Z,2.07
2019-04-20T00:11:23.190Z,1.93
2019-04-20T00:16:21.072Z,1.80
2019-04-20T00:21:47.002Z,1.90
2019-04-20T00:27:20.707Z,1.93
2019-04-20T00:32:03.024Z,1.90
2019-04-20T00:36:56.147Z,1.90
2019-04-20T00:42:04.422Z,2.10
2019-04-20T00:47:18.096Z,1.80
2019-04-20T00:52:27.479Z,2.10
2019-04-20T00:57:24.453Z,1.73
2019-04-20T01:02:33.575Z,2.07
2019-04-20T01:07:49.663Z,2.13
2019-04-20T01:18:47.219Z,2.07
2019-04-20T01:23:56.043Z,2.13
2019-04-20T01:29:08.956Z,2.20
2019-04-20T01:34:08.306Z,2.20
2019-04-20T01:39:19.734Z,2.83
2019-04-20T01:44:11.192Z,2.00
2019-04-20T01:49:19.087Z,2.10
2019-04-20T01:54:32.518Z,2.07
2019-04-20T01:59:39.822Z,2.50
2019-04-20T02:04:43.240Z,1.90
2019-04-20T02:09:49.956Z,3.10
2019-04-20T02:14:52.467Z,3.07
2019-04-20T02:20:12.540Z,2.17
2019-04-20T02:24:57.167Z,2.70
2019-04-20T02:30:29.945Z,2.27
2019-04-20T02:36:15.492Z,2.77
2019-04-20T02:41:11.569Z,2.60
2019-04-20T02:46:08.837Z,3.00
2019-04-20T02:51:13.269Z,2.90
2019-04-20T02:56:29.656Z,3.30
2019-04-20T03:01:31.129Z,2.73
2019-04-20T03:06:30.673Z,2.80
2019-04-20T03:11:55.092Z,2.43
2019-04-20T03:16:43.669Z,1.87
2019-04-20T03:21:59.814Z,1.87
2019-04-20T03:27:19.469Z,2.30
2019-04-20T03:37:38.081Z,2.10
2019-04-20T03:42:18.269Z,2.10
2019-04-20T03:47:30.377Z,3.00
2019-04-20T03:52:53.208Z,1.97
2019-04-20T03:58:04.554Z,2.20
2019-04-20T04:03:31.789Z,2.13
2019-04-20T04:08:19.396Z,2.30
2019-04-20T04:13:16.966Z,2.37
2019-04-20T04:18:28.178Z,2.30
2019-04-20T04:23:40.877Z,2.60
2019-04-20T04:28:46.352Z,2.67
2019-04-20T04:33:58.090Z,3.10
2019-04-20T04:38:57.060Z,3.23
2019-04-20T04:44:00.178Z,3.23
2019-04-20T04:48:51.072Z,2.93
2019-04-20T04:53:59.886Z,3.20
2019-04-20T04:58:56.669Z,3.37
2019-04-20T05:04:22.751Z,2.90
2019-04-20T05:09:10.601Z,3.10
2019-04-20T05:14:16.995Z,2.80
2019-04-20T05:19:37.714Z,2.83
2019-04-20T05:25:11.965Z,2.77
2019-04-20T05:29:59.162Z,2.30
2019-04-20T05:35:27.062Z,2.37
2019-04-20T05:40:26.218Z,2.40
2019-04-20T05:45:29.948Z,1.83
2019-04-20T05:50:36.548Z,2.07
2019-04-20T05:55:47.332Z,2.13
2019-04-20T06:00:47.865Z,2.30
2019-04-20T06:06:00.626Z,2.20
2019-04-20T06:10:56.247Z,2.67
2019-04-20T06:16:07.632Z,2.60
2019-04-20T06:21:21.305Z,2.50
2019-04-20T06:26:40.158Z,2.80
2019-04-20T06:31:27.337Z,2.43
2019-04-20T06:36:32.255Z,2.53
2019-04-20T06:41:54.325Z,2.10
2019-04-20T06:46:47.425Z,2.23
2019-04-20T06:51:55.013Z,2.77
2019-04-20T06:56:54.420Z,2.70
2019-04-20T07:02:09.976Z,3.07
2019-04-20T07:07:10.144Z,2.77
2019-04-20T07:12:09.339Z,2.50
2019-04-20T07:17:33.543Z,2.30
2019-04-20T07:22:34.689Z,2.83
2019-04-20T07:27:34.926Z,2.40
2019-04-20T07:32:51.148Z,2.60
2019-04-20T07:48:01.781Z,2.00
2019-04-20T07:52:51.680Z,2.30
2019-04-20T07:57:58.068Z,2.00
2019-04-20T08:03:39.472Z,2.10
2019-04-20T08:08:42.218Z,2.00
2019-04-20T08:18:52.625Z,2.00
2019-04-20T08:23:55.401Z,2.02
2019-04-20T08:28:58.080Z,1.50
2019-04-20T08:34:26.488Z,2.55
2019-04-20T08:39:38.063Z,2.15
2019-04-20T08:50:00.146Z,1.95
2019-04-20T08:54:34.381Z,1.70
2019-04-20T08:59:26.136Z,1.60
2019-04-20T09:04:37.446Z,1.98
2019-04-20T09:09:58.179Z,2.00
2019-04-20T09:14:39.667Z,1.70
2019-04-20T09:19:54.058Z,1.70
2019-04-20T09:25:24.962Z,1.60
2019-04-20T09:30:16.109Z,1.90
2019-04-20T09:35:20.961Z,1.80
2019-04-20T09:40:21.640Z,2.25
2019-04-20T09:45:19.753Z,1.65
2019-04-20T09:50:31.944Z,1.55
2019-04-20T09:55:32.836Z,1.75
2019-04-20T10:00:53.910Z,1.52
2019-04-20T10:05:43.487Z,1.92
2019-04-20T10:10:47.662Z,1.50
2019-04-20T10:15:50.783Z,1.20
2019-04-20T10:20:53.873Z,1.50
2019-04-20T10:25:56.662Z,1.35
2019-04-20T10:30:59.332Z,1.50
2019-04-20T10:36:03.480Z,1.60
2019-04-20T10:41:13.927Z,1.60
2019-04-20T10:46:11.126Z,1.75
2019-04-20T10:51:13.829Z,1.35
2019-04-20T10:56:16.595Z,1.22
2019-04-20T11:01:19.956Z,1.32
2019-04-20T11:06:22.767Z,1.47
2019-04-20T11:11:28.660Z,1.62
2019-04-20T11:16:30.610Z,1.30
2019-04-20T11:21:34.420Z,1.30
2019-04-20T11:26:39.931Z,1.55
2019-04-20T11:31:47.272Z,1.25
2019-04-20T11:36:46.323Z,1.47
2019-04-20T11:41:49.781Z,1.12
2019-04-20T11:46:52.604Z,1.10
2019-04-20T11:51:55.402Z,1.47
2019-04-20T11:56:59.378Z,1.30
2019-04-20T12:02:30.131Z,1.20
2019-04-20T12:07:38.139Z,1.27
2019-04-20T12:12:44.354Z,1.10
2019-04-20T12:17:45.420Z,1.10
2019-04-20T12:22:48.566Z,1.20
2019-04-20T12:27:55.176Z,1.05
2019-04-20T12:32:59.822Z,0.90
2019-04-20T12:38:00.987Z,1.05
2019-04-20T12:43:04.780Z,1.27
2019-04-20T12:48:08.015Z,1.27
2019-04-20T12:53:10.756Z,1.25
2019-04-20T12:58:14.596Z,1.20
2019-04-20T13:03:17.410Z,1.27
2019-04-20T13:08:27.040Z,1.20
2019-04-20T13:13:48.382Z,1.30
2019-04-20T13:18:55.128Z,1.52
2019-04-20T13:24:00.892Z,1.40
2019-04-20T13:29:04.762Z,1.40
2019-04-20T13:34:07.657Z,1.57
2019-04-20T13:39:10.448Z,1.40
2019-04-20T13:44:15.688Z,1.00
2019-04-20T13:49:18.828Z,1.30
2019-04-20T13:54:24.869Z,1.62
2019-04-20T13:59:30.357Z,1.20
2019-04-20T14:04:36.891Z,1.37
2019-04-20T14:09:39.672Z,1.60
2019-04-20T14:14:43.385Z,1.62
2019-04-20T14:19:47.426Z,2.00
2019-04-20T14:24:51.072Z,1.92
2019-04-20T14:29:55.016Z,1.92
2019-04-20T14:34:58.777Z,1.92
2019-04-20T14:40:01.663Z,1.70
2019-04-20T14:45:05.099Z,1.90
2019-04-20T14:50:09.644Z,2.42
2019-04-20T14:55:15.640Z,2.60
2019-04-20T15:00:43.772Z,2.30
2019-04-20T15:05:47.229Z,2.15
2019-04-20T15:10:52.013Z,2.40
2019-04-20T15:15:54.875Z,2.33
2019-04-20T15:20:59.524Z,2.62
2019-04-20T15:26:06.999Z,2.30
2019-04-20T15:31:10.078Z,2.47
2019-04-20T15:36:13.821Z,2.50
2019-04-20T15:41:18.367Z,2.27
2019-04-20T15:46:21.451Z,2.80
2019-04-20T15:51:25.847Z,2.27
2019-04-20T15:56:29.137Z,2.12
2019-04-20T16:01:36.606Z,2.35
2019-04-20T16:06:39.416Z,2.40
2019-04-20T16:11:42.070Z,2.50
2019-04-20T16:16:44.858Z,2.30
2019-04-20T16:21:47.917Z,1.82
2019-04-20T16:27:27.680Z,1.82
2019-04-20T16:32:30.565Z,2.37
2019-04-20T16:37:33.219Z,1.85
2019-04-20T16:42:39.243Z,2.17
2019-04-20T16:47:42.017Z,1.72
2019-04-20T16:52:44.924Z,2.00
2019-04-20T16:57:49.496Z,1.50
2019-04-20T17:02:58.512Z,2.10
2019-04-20T17:08:02.675Z,1.67
2019-04-20T17:13:06.383Z,1.80
2019-04-20T17:18:09.633Z,1.77
2019-04-20T17:23:13.103Z,1.70
2019-04-20T17:28:44.842Z,1.80
2019-04-20T17:34:36.484Z,1.70
2019-04-20T17:39:33.946Z,2.20
2019-04-20T17:44:41.571Z,2.00
2019-04-20T17:49:44.943Z,2.58
2019-04-20T17:54:39.681Z,2.45
2019-04-20T17:59:53.183Z,2.00
2019-04-20T18:05:19.791Z,1.95
2019-04-20T18:10:19.028Z,1.72
2019-04-20T18:15:23.724Z,1.70
2019-04-20T18:20:38.954Z,1.70
2019-04-20T18:26:07.901Z,1.85
2019-04-20T18:31:01.016Z,2.42
2019-04-20T18:36:02.545Z,2.10
2019-04-20T18:41:09.056Z,1.80
2019-04-20T18:46:25.970Z,2.03
2019-04-20T18:51:15.505Z,1.80
2019-04-20T18:56:25.679Z,1.97
2019-04-20T19:01:30.153Z,1.70
2019-04-20T19:06:27.745Z,1.57
2019-04-20T19:11:30.943Z,1.77
2019-04-20T19:16:51.795Z,1.80
2019-04-20T19:21:43.682Z,2.73
2019-04-20T19:26:51.547Z,1.70
2019-04-20T19:32:11.560Z,1.67
2019-04-20T19:37:04.093Z,1.40
2019-04-20T19:42:16.074Z,1.50
2019-04-20T19:47:28.170Z,1.30
2019-04-20T19:52:51.661Z,1.60
2019-04-20T19:57:32.274Z,2.47
2019-04-20T20:02:21.393Z,1.70
2019-04-20T20:07:30.892Z,2.13
2019-04-20T20:12:29.551Z,2.57
2019-04-20T20:17:55.671Z,1.80
2019-04-20T20:22:42.709Z,2.47
2019-04-20T20:27:49.223Z,2.23
2019-04-20T20:33:05.912Z,1.87
2019-04-20T20:37:57.357Z,2.63
2019-04-20T20:43:07.307Z,2.60
2019-04-20T20:48:15.464Z,2.40
2019-04-20T20:53:14.359Z,2.77
2019-04-20T20:58:18.267Z,2.10
2019-04-20T21:03:22.710Z,2.77
2019-04-20T21:08:19.999Z,3.10
2019-04-20T21:13:25.892Z,2.20
2019-04-20T21:18:48.983Z,4.67
2019-04-20T21:23:42.816Z,2.40
2019-04-20T21:28:39.771Z,2.53
2019-04-20T21:33:43.094Z,2.67
2019-04-20T21:38:46.865Z,2.73
2019-04-20T21:43:51.796Z,2.80
2019-04-20T21:49:08.185Z,3.27
2019-04-20T21:54:01.223Z,3.17
2019-04-20T21:59:06.417Z,2.90
2019-04-20T22:04:08.350Z,2.90
2019-04-20T22:09:13.042Z,2.50
2019-04-20T22:14:22.436Z,2.80
2019-04-20T22:19:35.909Z,2.67
2019-04-20T22:24:42.207Z,3.77
2019-04-20T22:29:32.281Z,3.50
2019-04-20T22:34:35.269Z,4.10
2019-04-20T22:39:45.664Z,3.50
2019-04-20T22:44:54.284Z,4.20
2019-04-20T22:50:12.533Z,4.13
2019-04-20T22:55:19.884Z,4.23
2019-04-20T23:00:06.928Z,4.50
2019-04-20T23:05:06.824Z,4.00
2019-04-20T23:10:10.971Z,5.60
2019-04-20T23:15:14.444Z,5.43
2019-04-20T23:20:24.628Z,5.43
2019-04-20T23:25:22.867Z,6.43
2019-04-20T23:30:30.523Z,7.10
2019-04-20T23:35:31.412Z,6.90
2019-04-20T23:40:35.439Z,7.87
2019-04-20T23:45:50.843Z,7.50
2019-04-20T23:51:08.186Z,9.97
2019-04-20T23:55:57.587Z,9.07
